Aiambak Airport


Codes: AIH/AIH
Name: Aiambak Airport
City: Aiambak
Country: Papua New Guinea
Elevation: 90 ft.
Wikipedia:

Photos at Aiambak Airport


   Photos courtesy of SpottingLog. You can add your own sightings and photos by signing up for a free trial today.



No photos found.

Weather at Aiambak Airport


Time (UTC)DescriptionTempratureWindCloud coverageVisibilityPressureHumidity
26-Jun-2024 00:00Light Rain26°C2 mph, E100%10000m1012hPa90%
26-Jun-2024 03:00Light Rain27°C2 mph, SE99%10000m1011hPa84%
26-Jun-2024 06:00Light Rain30°C4 mph, SE91%10000m1008hPa72%
26-Jun-2024 09:00Light Rain26°C0 mph, SE96%10000m1008hPa90%
26-Jun-2024 12:00Moderate Rain24°C2 mph, E92%10000m1010hPa97%
26-Jun-2024 15:00Light Rain25°C2 mph, SE100%10000m1009hPa98%
26-Jun-2024 18:00Overcast Clouds24°C2 mph, SE100%10000m1009hPa99%
26-Jun-2024 21:00Light Rain24°C2 mph, SE100%10000m1010hPa99%
27-Jun-2024 00:00Overcast Clouds27°C4 mph, E100%10000m1011hPa89%
27-Jun-2024 03:00Light Rain32°C4 mph, SE99%10000m1008hPa60%
27-Jun-2024 06:00Broken Clouds33°C4 mph, SE81%10000m1006hPa54%
27-Jun-2024 09:00Light Rain26°C4 mph, SE34%10000m1007hPa92%
27-Jun-2024 12:00Light Rain25°C2 mph, SE54%10000m1009hPa97%
27-Jun-2024 15:00Light Rain24°C2 mph, SE80%10000m1009hPa99%
27-Jun-2024 18:00Overcast Clouds24°C2 mph, SE87%4573m1009hPa100%
27-Jun-2024 21:00Light Rain24°C0 mph, E100%1918m1010hPa100%
28-Jun-2024 00:00Light Rain25°C0 mph, NE100%8472m1012hPa99%
28-Jun-2024 03:00Light Rain25°C2 mph, NE100%10000m1010hPa98%
28-Jun-2024 06:00Light Rain26°C2 mph, SE100%10000m1008hPa96%
28-Jun-2024 09:00Light Rain24°C2 mph, E100%10000m1009hPa99%
28-Jun-2024 12:00Light Rain24°C2 mph, SE100%10000m1011hPa99%
28-Jun-2024 15:00Light Rain24°C2 mph, SE100%10000m1010hPa99%
28-Jun-2024 18:00Light Rain24°C2 mph, SE100%3057m1009hPa100%
28-Jun-2024 21:00Light Rain24°C2 mph, SE100%10000m1010hPa100%
29-Jun-2024 00:00Light Rain25°C2 mph, SE100%10000m1012hPa98%
29-Jun-2024 03:00Light Rain26°C2 mph, SE98%10000m1009hPa92%
29-Jun-2024 06:00Light Rain27°C4 mph, SE98%9322m1007hPa94%
29-Jun-2024 09:00Moderate Rain24°C2 mph, SE100%10000m1009hPa98%
29-Jun-2024 12:00Light Rain24°C4 mph, SE100%10000m1011hPa99%
29-Jun-2024 15:00Light Rain24°C4 mph, SE99%10000m1010hPa99%
29-Jun-2024 18:00Light Rain24°C2 mph, SE99%10000m1009hPa99%
29-Jun-2024 21:00Light Rain24°C2 mph, SE100%10000m1010hPa99%
30-Jun-2024 00:00Light Rain25°C4 mph, SE99%10000m1011hPa95%
30-Jun-2024 03:00Light Rain28°C4 mph, E66%10000m1008hPa80%
30-Jun-2024 06:00Light Rain28°C2 mph, SE83%10000m1007hPa87%
30-Jun-2024 09:00Light Rain25°C2 mph, SE87%10000m1009hPa97%
30-Jun-2024 12:00Light Rain24°C2 mph, SE94%10000m1010hPa99%
30-Jun-2024 15:00Light Rain24°C4 mph, SE100%9267m1010hPa99%
30-Jun-2024 18:00Light Rain24°C4 mph, SE100%10000m1009hPa99%
30-Jun-2024 21:00Overcast Clouds24°C2 mph, SE99%10000m1010hPa99%